sensor_id;sensor_type;location;lat;lon;timestamp;P1;durP1;ratioP1;P2;durP2;ratioP2
2502;SDS011;1262;50.918;6.922;2022-07-30T00:00:24;4.87;;;4.37;;
2502;SDS011;1262;50.918;6.922;2022-07-30T00:02:52;4.43;;;4.03;;
2502;SDS011;1262;50.918;6.922;2022-07-30T00:05:19;5.47;;;4.47;;
2502;SDS011;1262;50.918;6.922;2022-07-30T00:07:47;4.67;;;4.27;;
2502;SDS011;1262;50.918;6.922;2022-07-30T00:10:14;8.37;;;4.70;;
2502;SDS011;1262;50.918;6.922;2022-07-30T00:12:41;5.97;;;4.27;;
2502;SDS011;1262;50.918;6.922;2022-07-30T00:15:08;4.73;;;3.93;;
2502;SDS011;1262;50.918;6.922;2022-07-30T00:17:35;7.63;;;5.03;;
2502;SDS011;1262;50.918;6.922;2022-07-30T00:20:05;6.53;;;4.37;;
2502;SDS011;1262;50.918;6.922;2022-07-30T00:22:32;5.30;;;4.60;;
2502;SDS011;1262;50.918;6.922;2022-07-30T00:24:59;7.97;;;4.33;;
2502;SDS011;1262;50.918;6.922;2022-07-30T00:27:26;5.10;;;4.17;;
2502;SDS011;1262;50.918;6.922;2022-07-30T00:29:58;4.20;;;3.83;;
2502;SDS011;1262;50.918;6.922;2022-07-30T00:32:26;5.50;;;4.80;;
2502;SDS011;1262;50.918;6.922;2022-07-30T00:34:53;7.93;;;4.53;;
2502;SDS011;1262;50.918;6.922;2022-07-30T00:37:21;4.87;;;4.47;;
2502;SDS011;1262;50.918;6.922;2022-07-30T00:39:49;5.90;;;4.80;;
2502;SDS011;1262;50.918;6.922;2022-07-30T00:42:16;6.57;;;5.33;;
2502;SDS011;1262;50.918;6.922;2022-07-30T00:44:49;5.10;;;4.70;;
2502;SDS011;1262;50.918;6.922;2022-07-30T00:47:16;5.70;;;4.77;;
2502;SDS011;1262;50.918;6.922;2022-07-30T00:49:44;8.57;;;5.40;;
2502;SDS011;1262;50.918;6.922;2022-07-30T00:52:11;6.43;;;5.17;;
2502;SDS011;1262;50.918;6.922;2022-07-30T00:54:40;10.27;;;5.23;;
2502;SDS011;1262;50.918;6.922;2022-07-30T00:57:07;7.27;;;5.93;;
2502;SDS011;1262;50.918;6.922;2022-07-30T00:59:34;8.40;;;5.87;;
2502;SDS011;1262;50.918;6.922;2022-07-30T01:02:01;7.83;;;5.87;;
2502;SDS011;1262;50.918;6.922;2022-07-30T01:04:28;6.10;;;5.40;;
2502;SDS011;1262;50.918;6.922;2022-07-30T01:06:56;8.27;;;5.20;;
2502;SDS011;1262;50.918;6.922;2022-07-30T01:09:23;7.43;;;6.00;;
2502;SDS011;1262;50.918;6.922;2022-07-30T01:11:51;7.50;;;5.67;;
2502;SDS011;1262;50.918;6.922;2022-07-30T01:14:19;8.13;;;6.40;;
2502;SDS011;1262;50.918;6.922;2022-07-30T01:16:48;8.30;;;6.13;;
2502;SDS011;1262;50.918;6.922;2022-07-30T01:19:19;10.10;;;5.50;;
2502;SDS011;1262;50.918;6.922;2022-07-30T01:22:02;6.13;;;5.50;;
2502;SDS011;1262;50.918;6.922;2022-07-30T01:24:37;7.20;;;6.20;;
2502;SDS011;1262;50.918;6.922;2022-07-30T01:27:07;7.20;;;5.10;;
2502;SDS011;1262;50.918;6.922;2022-07-30T01:29:35;7.57;;;5.47;;
2502;SDS011;1262;50.918;6.922;2022-07-30T01:32:04;10.00;;;6.27;;
2502;SDS011;1262;50.918;6.922;2022-07-30T01:34:32;6.10;;;5.50;;
2502;SDS011;1262;50.918;6.922;2022-07-30T01:37:00;6.43;;;5.37;;
2502;SDS011;1262;50.918;6.922;2022-07-30T01:39:29;7.60;;;5.80;;
2502;SDS011;1262;50.918;6.922;2022-07-30T01:41:57;8.70;;;6.17;;
2502;SDS011;1262;50.918;6.922;2022-07-30T01:44:30;6.60;;;6.00;;
2502;SDS011;1262;50.918;6.922;2022-07-30T01:46:58;8.67;;;5.53;;
2502;SDS011;1262;50.918;6.922;2022-07-30T01:49:25;9.10;;;6.03;;
2502;SDS011;1262;50.918;6.922;2022-07-30T01:51:53;6.63;;;5.93;;
2502;SDS011;1262;50.918;6.922;2022-07-30T01:54:20;6.33;;;5.37;;
2502;SDS011;1262;50.918;6.922;2022-07-30T01:56:50;6.20;;;5.60;;
2502;SDS011;1262;50.918;6.922;2022-07-30T01:59:18;6.60;;;5.90;;
2502;SDS011;1262;50.918;6.922;2022-07-30T02:01:47;9.00;;;6.27;;
2502;SDS011;1262;50.918;6.922;2022-07-30T02:04:14;6.70;;;5.87;;
2502;SDS011;1262;50.918;6.922;2022-07-30T02:06:43;7.00;;;5.80;;
2502;SDS011;1262;50.918;6.922;2022-07-30T02:09:12;5.90;;;5.40;;
2502;SDS011;1262;50.918;6.922;2022-07-30T02:11:42;6.50;;;5.77;;
2502;SDS011;1262;50.918;6.922;2022-07-30T02:14:25;6.77;;;6.17;;
2502;SDS011;1262;50.918;6.922;2022-07-30T02:16:55;7.33;;;5.97;;
2502;SDS011;1262;50.918;6.922;2022-07-30T02:19:27;6.50;;;5.73;;
2502;SDS011;1262;50.918;6.922;2022-07-30T02:21:57;7.50;;;5.87;;
2502;SDS011;1262;50.918;6.922;2022-07-30T02:24:27;6.77;;;6.17;;
2502;SDS011;1262;50.918;6.922;2022-07-30T02:26:56;7.23;;;6.50;;
2502;SDS011;1262;50.918;6.922;2022-07-30T02:29:27;8.37;;;6.10;;
2502;SDS011;1262;50.918;6.922;2022-07-30T02:31:56;8.60;;;7.70;;
2502;SDS011;1262;50.918;6.922;2022-07-30T02:34:23;7.83;;;7.03;;
2502;SDS011;1262;50.918;6.922;2022-07-30T02:36:51;8.17;;;7.27;;
2502;SDS011;1262;50.918;6.922;2022-07-30T02:39:19;9.33;;;7.20;;
2502;SDS011;1262;50.918;6.922;2022-07-30T02:41:47;10.60;;;7.60;;
2502;SDS011;1262;50.918;6.922;2022-07-30T02:44:15;11.57;;;8.90;;
2502;SDS011;1262;50.918;6.922;2022-07-30T02:46:43;13.83;;;9.50;;
2502;SDS011;1262;50.918;6.922;2022-07-30T02:49:12;9.27;;;8.30;;
2502;SDS011;1262;50.918;6.922;2022-07-30T02:51:40;10.50;;;9.40;;
2502;SDS011;1262;50.918;6.922;2022-07-30T02:54:08;12.60;;;9.53;;
2502;SDS011;1262;50.918;6.922;2022-07-30T02:56:36;11.33;;;8.90;;
2502;SDS011;1262;50.918;6.922;2022-07-30T02:59:05;11.90;;;8.53;;
2502;SDS011;1262;50.918;6.922;2022-07-30T03:01:32;8.60;;;6.80;;
2502;SDS011;1262;50.918;6.922;2022-07-30T03:04:00;8.13;;;7.23;;
2502;SDS011;1262;50.918;6.922;2022-07-30T03:06:29;12.40;;;8.07;;
2502;SDS011;1262;50.918;6.922;2022-07-30T03:08:57;8.80;;;8.00;;
2502;SDS011;1262;50.918;6.922;2022-07-30T03:11:25;11.03;;;7.73;;
2502;SDS011;1262;50.918;6.922;2022-07-30T03:13:53;12.63;;;8.40;;
2502;SDS011;1262;50.918;6.922;2022-07-30T03:16:21;8.33;;;7.33;;
2502;SDS011;1262;50.918;6.922;2022-07-30T03:18:49;8.97;;;7.20;;
2502;SDS011;1262;50.918;6.922;2022-07-30T03:21:16;8.10;;;6.83;;
2502;SDS011;1262;50.918;6.922;2022-07-30T03:23:46;7.77;;;7.10;;
2502;SDS011;1262;50.918;6.922;2022-07-30T03:26:15;13.40;;;7.57;;
2502;SDS011;1262;50.918;6.922;2022-07-30T03:28:44;10.13;;;7.90;;
2502;SDS011;1262;50.918;6.922;2022-07-30T03:31:12;9.80;;;8.80;;
2502;SDS011;1262;50.918;6.922;2022-07-30T03:33:40;9.47;;;8.27;;
2502;SDS011;1262;50.918;6.922;2022-07-30T03:36:07;7.93;;;7.13;;
2502;SDS011;1262;50.918;6.922;2022-07-30T03:38:35;7.67;;;6.70;;
2502;SDS011;1262;50.918;6.922;2022-07-30T03:41:04;8.13;;;7.33;;
2502;SDS011;1262;50.918;6.922;2022-07-30T03:43:33;9.77;;;7.40;;
2502;SDS011;1262;50.918;6.922;2022-07-30T03:46:02;7.37;;;6.47;;
2502;SDS011;1262;50.918;6.922;2022-07-30T03:48:29;7.40;;;6.43;;
2502;SDS011;1262;50.918;6.922;2022-07-30T03:50:57;8.23;;;7.40;;
2502;SDS011;1262;50.918;6.922;2022-07-30T03:53:24;8.73;;;7.13;;
2502;SDS011;1262;50.918;6.922;2022-07-30T03:55:52;11.30;;;6.57;;
2502;SDS011;1262;50.918;6.922;2022-07-30T03:58:21;8.27;;;6.63;;
2502;SDS011;1262;50.918;6.922;2022-07-30T04:00:49;8.43;;;7.47;;
2502;SDS011;1262;50.918;6.922;2022-07-30T04:03:22;9.80;;;7.10;;
2502;SDS011;1262;50.918;6.922;2022-07-30T04:05:53;8.10;;;6.70;;
2502;SDS011;1262;50.918;6.922;2022-07-30T04:08:20;10.60;;;7.50;;
2502;SDS011;1262;50.918;6.922;2022-07-30T04:10:47;8.63;;;7.37;;
2502;SDS011;1262;50.918;6.922;2022-07-30T04:13:15;8.03;;;7.30;;
2502;SDS011;1262;50.918;6.922;2022-07-30T04:15:45;8.50;;;7.50;;
2502;SDS011;1262;50.918;6.922;2022-07-30T04:18:13;9.13;;;7.30;;
2502;SDS011;1262;50.918;6.922;2022-07-30T04:20:42;7.60;;;6.77;;
2502;SDS011;1262;50.918;6.922;2022-07-30T04:23:10;10.63;;;8.03;;
2502;SDS011;1262;50.918;6.922;2022-07-30T04:25:38;9.83;;;8.03;;
2502;SDS011;1262;50.918;6.922;2022-07-30T04:28:06;8.63;;;7.57;;
2502;SDS011;1262;50.918;6.922;2022-07-30T04:30:35;13.27;;;8.13;;
2502;SDS011;1262;50.918;6.922;2022-07-30T04:33:04;10.03;;;8.40;;
2502;SDS011;1262;50.918;6.922;2022-07-30T04:35:31;9.50;;;7.80;;
2502;SDS011;1262;50.918;6.922;2022-07-30T04:37:59;11.47;;;8.77;;
2502;SDS011;1262;50.918;6.922;2022-07-30T04:40:28;8.30;;;7.50;;
2502;SDS011;1262;50.918;6.922;2022-07-30T04:42:56;9.47;;;8.43;;
2502;SDS011;1262;50.918;6.922;2022-07-30T04:45:24;8.17;;;7.40;;
2502;SDS011;1262;50.918;6.922;2022-07-30T04:47:51;9.87;;;7.40;;
2502;SDS011;1262;50.918;6.922;2022-07-30T04:50:20;10.60;;;7.80;;
2502;SDS011;1262;50.918;6.922;2022-07-30T04:52:48;8.60;;;7.80;;
2502;SDS011;1262;50.918;6.922;2022-07-30T04:55:16;11.10;;;8.73;;
2502;SDS011;1262;50.918;6.922;2022-07-30T04:57:44;11.20;;;7.80;;
2502;SDS011;1262;50.918;6.922;2022-07-30T05:00:12;10.00;;;7.90;;
2502;SDS011;1262;50.918;6.922;2022-07-30T05:02:39;8.70;;;7.90;;
2502;SDS011;1262;50.918;6.922;2022-07-30T05:05:08;9.03;;;8.20;;
2502;SDS011;1262;50.918;6.922;2022-07-30T05:07:38;11.53;;;8.80;;
2502;SDS011;1262;50.918;6.922;2022-07-30T05:10:07;10.30;;;8.50;;
2502;SDS011;1262;50.918;6.922;2022-07-30T05:12:35;9.13;;;8.20;;
2502;SDS011;1262;50.918;6.922;2022-07-30T05:15:02;14.27;;;7.80;;
2502;SDS011;1262;50.918;6.922;2022-07-30T05:17:30;8.47;;;7.57;;
2502;SDS011;1262;50.918;6.922;2022-07-30T05:19:57;9.17;;;8.27;;
2502;SDS011;1262;50.918;6.922;2022-07-30T05:22:24;12.17;;;9.30;;
2502;SDS011;1262;50.918;6.922;2022-07-30T05:24:55;11.93;;;8.30;;
2502;SDS011;1262;50.918;6.922;2022-07-30T05:27:22;14.70;;;8.70;;
2502;SDS011;1262;50.918;6.922;2022-07-30T05:29:50;12.70;;;8.97;;
2502;SDS011;1262;50.918;6.922;2022-07-30T05:32:17;12.63;;;9.60;;
2502;SDS011;1262;50.918;6.922;2022-07-30T05:34:44;10.70;;;8.87;;
2502;SDS011;1262;50.918;6.922;2022-07-30T05:37:11;14.43;;;9.70;;
2502;SDS011;1262;50.918;6.922;2022-07-30T05:39:39;15.47;;;9.00;;
2502;SDS011;1262;50.918;6.922;2022-07-30T05:42:07;15.40;;;9.57;;
2502;SDS011;1262;50.918;6.922;2022-07-30T05:44:34;12.20;;;10.23;;
2502;SDS011;1262;50.918;6.922;2022-07-30T05:47:02;13.60;;;10.33;;
2502;SDS011;1262;50.918;6.922;2022-07-30T05:49:29;13.17;;;11.03;;
2502;SDS011;1262;50.918;6.922;2022-07-30T05:51:56;16.80;;;12.63;;
2502;SDS011;1262;50.918;6.922;2022-07-30T05:54:23;13.53;;;10.33;;
2502;SDS011;1262;50.918;6.922;2022-07-30T05:56:50;12.70;;;10.77;;
2502;SDS011;1262;50.918;6.922;2022-07-30T05:59:19;12.70;;;10.80;;
2502;SDS011;1262;50.918;6.922;2022-07-30T06:01:46;11.57;;;9.73;;
2502;SDS011;1262;50.918;6.922;2022-07-30T06:04:13;16.60;;;11.03;;
2502;SDS011;1262;50.918;6.922;2022-07-30T06:06:41;13.07;;;10.33;;
2502;SDS011;1262;50.918;6.922;2022-07-30T06:09:08;15.13;;;12.50;;
2502;SDS011;1262;50.918;6.922;2022-07-30T06:11:35;17.40;;;10.70;;
2502;SDS011;1262;50.918;6.922;2022-07-30T06:14:02;11.90;;;9.00;;
2502;SDS011;1262;50.918;6.922;2022-07-30T06:16:31;15.87;;;11.10;;
2502;SDS011;1262;50.918;6.922;2022-07-30T06:18:58;14.03;;;10.30;;
2502;SDS011;1262;50.918;6.922;2022-07-30T06:21:25;13.37;;;9.87;;
2502;SDS011;1262;50.918;6.922;2022-07-30T06:23:53;15.40;;;10.93;;
2502;SDS011;1262;50.918;6.922;2022-07-30T06:26:20;13.77;;;11.20;;
2502;SDS011;1262;50.918;6.922;2022-07-30T06:28:48;10.60;;;9.33;;
2502;SDS011;1262;50.918;6.922;2022-07-30T06:31:15;13.47;;;9.90;;
2502;SDS011;1262;50.918;6.922;2022-07-30T06:33:43;14.30;;;9.90;;
2502;SDS011;1262;50.918;6.922;2022-07-30T06:36:11;11.43;;;9.60;;
2502;SDS011;1262;50.918;6.922;2022-07-30T06:38:38;11.27;;;9.47;;
2502;SDS011;1262;50.918;6.922;2022-07-30T06:41:06;14.70;;;10.60;;
2502;SDS011;1262;50.918;6.922;2022-07-30T06:43:33;14.87;;;11.00;;
2502;SDS011;1262;50.918;6.922;2022-07-30T06:46:00;13.93;;;10.40;;
2502;SDS011;1262;50.918;6.922;2022-07-30T06:48:28;13.93;;;11.30;;
2502;SDS011;1262;50.918;6.922;2022-07-30T06:50:57;12.07;;;10.17;;
2502;SDS011;1262;50.918;6.922;2022-07-30T06:53:25;14.40;;;10.90;;
2502;SDS011;1262;50.918;6.922;2022-07-30T06:55:52;14.53;;;11.27;;
2502;SDS011;1262;50.918;6.922;2022-07-30T06:58:19;14.70;;;9.20;;
2502;SDS011;1262;50.918;6.922;2022-07-30T07:00:46;17.17;;;10.00;;
2502;SDS011;1262;50.918;6.922;2022-07-30T07:03:13;15.50;;;10.30;;
2502;SDS011;1262;50.918;6.922;2022-07-30T07:05:41;16.20;;;10.97;;
2502;SDS011;1262;50.918;6.922;2022-07-30T07:08:09;14.53;;;10.20;;
2502;SDS011;1262;50.918;6.922;2022-07-30T07:10:36;13.87;;;10.50;;
2502;SDS011;1262;50.918;6.922;2022-07-30T07:13:04;15.33;;;9.37;;
2502;SDS011;1262;50.918;6.922;2022-07-30T07:15:31;14.00;;;10.63;;
2502;SDS011;1262;50.918;6.922;2022-07-30T07:17:58;15.90;;;10.80;;
2502;SDS011;1262;50.918;6.922;2022-07-30T07:20:25;18.50;;;14.30;;
2502;SDS011;1262;50.918;6.922;2022-07-30T07:22:53;18.80;;;14.00;;
2502;SDS011;1262;50.918;6.922;2022-07-30T07:25:21;17.77;;;12.20;;
2502;SDS011;1262;50.918;6.922;2022-07-30T07:27:48;19.60;;;16.07;;
2502;SDS011;1262;50.918;6.922;2022-07-30T07:30:15;17.53;;;13.17;;
2502;SDS011;1262;50.918;6.922;2022-07-30T07:32:43;19.10;;;12.57;;
2502;SDS011;1262;50.918;6.922;2022-07-30T07:35:10;19.77;;;14.27;;
2502;SDS011;1262;50.918;6.922;2022-07-30T07:37:37;23.30;;;15.43;;
2502;SDS011;1262;50.918;6.922;2022-07-30T07:40:05;21.73;;;15.03;;
2502;SDS011;1262;50.918;6.922;2022-07-30T07:42:34;15.40;;;13.47;;
2502;SDS011;1262;50.918;6.922;2022-07-30T07:45:01;17.73;;;13.63;;
2502;SDS011;1262;50.918;6.922;2022-07-30T07:47:28;16.40;;;14.40;;
2502;SDS011;1262;50.918;6.922;2022-07-30T07:49:56;19.63;;;14.13;;
2502;SDS011;1262;50.918;6.922;2022-07-30T07:52:23;16.33;;;13.83;;
2502;SDS011;1262;50.918;6.922;2022-07-30T07:54:50;20.80;;;15.50;;
2502;SDS011;1262;50.918;6.922;2022-07-30T07:57:17;19.00;;;15.97;;
2502;SDS011;1262;50.918;6.922;2022-07-30T07:59:46;19.83;;;13.30;;
2502;SDS011;1262;50.918;6.922;2022-07-30T08:02:15;16.77;;;11.60;;
2502;SDS011;1262;50.918;6.922;2022-07-30T08:04:42;14.23;;;11.40;;
2502;SDS011;1262;50.918;6.922;2022-07-30T08:07:10;15.50;;;11.53;;
2502;SDS011;1262;50.918;6.922;2022-07-30T08:09:37;11.50;;;8.63;;
2502;SDS011;1262;50.918;6.922;2022-07-30T08:12:05;13.43;;;9.60;;
2502;SDS011;1262;50.918;6.922;2022-07-30T08:14:32;14.67;;;12.40;;
2502;SDS011;1262;50.918;6.922;2022-07-30T08:17:00;15.10;;;10.60;;
2502;SDS011;1262;50.918;6.922;2022-07-30T08:19:28;15.37;;;11.33;;
2502;SDS011;1262;50.918;6.922;2022-07-30T08:21:55;15.80;;;9.20;;
2502;SDS011;1262;50.918;6.922;2022-07-30T08:24:23;14.30;;;9.50;;
2502;SDS011;1262;50.918;6.922;2022-07-30T08:26:50;14.50;;;8.87;;
2502;SDS011;1262;50.918;6.922;2022-07-30T08:29:18;12.13;;;8.47;;
2502;SDS011;1262;50.918;6.922;2022-07-30T08:31:45;14.63;;;9.30;;
2502;SDS011;1262;50.918;6.922;2022-07-30T08:34:13;9.40;;;7.30;;
2502;SDS011;1262;50.918;6.922;2022-07-30T08:36:42;10.30;;;7.70;;
2502;SDS011;1262;50.918;6.922;2022-07-30T08:39:09;13.97;;;8.20;;
2502;SDS011;1262;50.918;6.922;2022-07-30T08:41:36;14.07;;;8.13;;
2502;SDS011;1262;50.918;6.922;2022-07-30T08:44:03;11.67;;;8.33;;
2502;SDS011;1262;50.918;6.922;2022-07-30T08:46:32;11.20;;;9.50;;
2502;SDS011;1262;50.918;6.922;2022-07-30T08:49:00;11.50;;;7.00;;
2502;SDS011;1262;50.918;6.922;2022-07-30T08:51:29;12.17;;;8.80;;
2502;SDS011;1262;50.918;6.922;2022-07-30T08:53:56;12.27;;;8.60;;
2502;SDS011;1262;50.918;6.922;2022-07-30T08:56:25;9.57;;;7.40;;
2502;SDS011;1262;50.918;6.922;2022-07-30T08:58:52;10.97;;;8.13;;
2502;SDS011;1262;50.918;6.922;2022-07-30T09:01:19;7.00;;;5.77;;
2502;SDS011;1262;50.918;6.922;2022-07-30T09:03:47;7.50;;;6.70;;
2502;SDS011;1262;50.918;6.922;2022-07-30T09:06:15;13.17;;;8.27;;
2502;SDS011;1262;50.918;6.922;2022-07-30T09:08:43;8.63;;;7.03;;
2502;SDS011;1262;50.918;6.922;2022-07-30T09:11:10;9.40;;;7.00;;
2502;SDS011;1262;50.918;6.922;2022-07-30T09:13:38;11.40;;;7.93;;
2502;SDS011;1262;50.918;6.922;2022-07-30T09:16:07;9.90;;;7.10;;
2502;SDS011;1262;50.918;6.922;2022-07-30T09:18:44;9.00;;;8.10;;
2502;SDS011;1262;50.918;6.922;2022-07-30T09:21:13;9.57;;;8.50;;
2502;SDS011;1262;50.918;6.922;2022-07-30T09:23:54;8.90;;;7.40;;
2502;SDS011;1262;50.918;6.922;2022-07-30T09:26:22;10.83;;;7.73;;
2502;SDS011;1262;50.918;6.922;2022-07-30T09:28:49;11.43;;;8.80;;
2502;SDS011;1262;50.918;6.922;2022-07-30T09:31:16;7.90;;;7.20;;
2502;SDS011;1262;50.918;6.922;2022-07-30T09:33:44;11.37;;;9.67;;
2502;SDS011;1262;50.918;6.922;2022-07-30T09:36:13;8.53;;;7.73;;
2502;SDS011;1262;50.918;6.922;2022-07-30T09:38:42;12.13;;;10.07;;
2502;SDS011;1262;50.918;6.922;2022-07-30T09:41:12;10.93;;;9.10;;
2502;SDS011;1262;50.918;6.922;2022-07-30T09:43:41;11.30;;;8.40;;
2502;SDS011;1262;50.918;6.922;2022-07-30T09:46:08;9.67;;;8.30;;
2502;SDS011;1262;50.918;6.922;2022-07-30T09:48:35;11.73;;;10.00;;
2502;SDS011;1262;50.918;6.922;2022-07-30T09:51:03;11.60;;;8.67;;
2502;SDS011;1262;50.918;6.922;2022-07-30T09:53:30;8.93;;;8.03;;
2502;SDS011;1262;50.918;6.922;2022-07-30T09:55:57;14.07;;;9.67;;
2502;SDS011;1262;50.918;6.922;2022-07-30T09:58:37;9.73;;;8.77;;
2502;SDS011;1262;50.918;6.922;2022-07-30T10:01:04;11.60;;;8.87;;
2502;SDS011;1262;50.918;6.922;2022-07-30T10:03:34;9.80;;;8.80;;
2502;SDS011;1262;50.918;6.922;2022-07-30T10:06:07;10.43;;;9.07;;
2502;SDS011;1262;50.918;6.922;2022-07-30T10:08:38;12.73;;;6.90;;
2502;SDS011;1262;50.918;6.922;2022-07-30T10:11:06;10.47;;;6.97;;
2502;SDS011;1262;50.918;6.922;2022-07-30T10:13:36;9.77;;;5.60;;
2502;SDS011;1262;50.918;6.922;2022-07-30T10:16:04;7.13;;;6.30;;
2502;SDS011;1262;50.918;6.922;2022-07-30T10:18:33;8.70;;;6.00;;
2502;SDS011;1262;50.918;6.922;2022-07-30T10:21:05;5.93;;;5.00;;
2502;SDS011;1262;50.918;6.922;2022-07-30T10:23:58;7.30;;;5.33;;
2502;SDS011;1262;50.918;6.922;2022-07-30T10:26:25;6.40;;;5.70;;
2502;SDS011;1262;50.918;6.922;2022-07-30T10:28:54;8.17;;;4.97;;
2502;SDS011;1262;50.918;6.922;2022-07-30T10:31:24;7.10;;;5.80;;
2502;SDS011;1262;50.918;6.922;2022-07-30T10:33:55;5.87;;;5.03;;
2502;SDS011;1262;50.918;6.922;2022-07-30T10:36:22;5.80;;;4.70;;
2502;SDS011;1262;50.918;6.922;2022-07-30T10:38:50;6.00;;;4.70;;
2502;SDS011;1262;50.918;6.922;2022-07-30T10:41:22;5.67;;;4.77;;
2502;SDS011;1262;50.918;6.922;2022-07-30T10:46:42;9.87;;;4.50;;
2502;SDS011;1262;50.918;6.922;2022-07-30T10:49:10;4.40;;;4.00;;
2502;SDS011;1262;50.918;6.922;2022-07-30T10:51:43;6.10;;;4.97;;
2502;SDS011;1262;50.918;6.922;2022-07-30T10:57:02;11.13;;;6.43;;
2502;SDS011;1262;50.918;6.922;2022-07-30T10:59:29;6.93;;;5.63;;
2502;SDS011;1262;50.918;6.922;2022-07-30T11:02:18;8.53;;;5.23;;
2502;SDS011;1262;50.918;6.922;2022-07-30T11:04:46;5.60;;;4.43;;
2502;SDS011;1262;50.918;6.922;2022-07-30T11:09:56;3.93;;;3.53;;
2502;SDS011;1262;50.918;6.922;2022-07-30T11:15:06;5.90;;;4.30;;
2502;SDS011;1262;50.918;6.922;2022-07-30T11:20:17;4.63;;;4.00;;
2502;SDS011;1262;50.918;6.922;2022-07-30T11:22:45;5.80;;;4.40;;
2502;SDS011;1262;50.918;6.922;2022-07-30T11:27:56;3.67;;;3.10;;
2502;SDS011;1262;50.918;6.922;2022-07-30T11:30:33;9.30;;;4.10;;
2502;SDS011;1262;50.918;6.922;2022-07-30T11:35:43;6.00;;;3.53;;
2502;SDS011;1262;50.918;6.922;2022-07-30T11:41:12;6.60;;;3.73;;
2502;SDS011;1262;50.918;6.922;2022-07-30T11:43:39;6.07;;;3.83;;
2502;SDS011;1262;50.918;6.922;2022-07-30T11:46:07;4.20;;;3.50;;
2502;SDS011;1262;50.918;6.922;2022-07-30T11:48:35;4.40;;;3.10;;
2502;SDS011;1262;50.918;6.922;2022-07-30T11:51:04;3.37;;;3.07;;
2502;SDS011;1262;50.918;6.922;2022-07-30T11:53:33;4.10;;;3.70;;
2502;SDS011;1262;50.918;6.922;2022-07-30T11:56:00;8.37;;;4.77;;
2502;SDS011;1262;50.918;6.922;2022-07-30T11:58:28;5.87;;;3.50;;
2502;SDS011;1262;50.918;6.922;2022-07-30T12:00:57;4.83;;;3.70;;
2502;SDS011;1262;50.918;6.922;2022-07-30T12:03:25;4.70;;;3.73;;
2502;SDS011;1262;50.918;6.922;2022-07-30T12:05:55;4.90;;;3.23;;
2502;SDS011;1262;50.918;6.922;2022-07-30T12:08:24;3.83;;;3.43;;
2502;SDS011;1262;50.918;6.922;2022-07-30T12:10:55;3.70;;;3.17;;
2502;SDS011;1262;50.918;6.922;2022-07-30T12:13:23;5.43;;;3.57;;
2502;SDS011;1262;50.918;6.922;2022-07-30T12:15:51;6.67;;;2.80;;
2502;SDS011;1262;50.918;6.922;2022-07-30T12:18:22;4.70;;;3.07;;
2502;SDS011;1262;50.918;6.922;2022-07-30T12:20:52;6.27;;;3.57;;
2502;SDS011;1262;50.918;6.922;2022-07-30T12:23:19;3.90;;;2.80;;
2502;SDS011;1262;50.918;6.922;2022-07-30T12:25:48;4.63;;;3.53;;
2502;SDS011;1262;50.918;6.922;2022-07-30T12:28:18;7.87;;;3.60;;
2502;SDS011;1262;50.918;6.922;2022-07-30T12:30:46;4.57;;;3.20;;
2502;SDS011;1262;50.918;6.922;2022-07-30T12:33:13;4.23;;;3.20;;
2502;SDS011;1262;50.918;6.922;2022-07-30T12:35:41;4.57;;;3.40;;
2502;SDS011;1262;50.918;6.922;2022-07-30T12:38:08;4.10;;;3.07;;
2502;SDS011;1262;50.918;6.922;2022-07-30T12:40:50;5.53;;;3.50;;
2502;SDS011;1262;50.918;6.922;2022-07-30T12:43:17;7.80;;;2.70;;
2502;SDS011;1262;50.918;6.922;2022-07-30T12:45:44;6.00;;;3.50;;
2502;SDS011;1262;50.918;6.922;2022-07-30T12:48:11;3.30;;;3.00;;
2502;SDS011;1262;50.918;6.922;2022-07-30T12:50:39;5.20;;;3.47;;
2502;SDS011;1262;50.918;6.922;2022-07-30T12:53:06;5.50;;;3.00;;
2502;SDS011;1262;50.918;6.922;2022-07-30T12:55:34;6.07;;;2.80;;
2502;SDS011;1262;50.918;6.922;2022-07-30T12:58:03;4.17;;;2.90;;
2502;SDS011;1262;50.918;6.922;2022-07-30T13:00:31;5.70;;;2.87;;
2502;SDS011;1262;50.918;6.922;2022-07-30T13:03:00;2.50;;;2.30;;
2502;SDS011;1262;50.918;6.922;2022-07-30T13:08:09;3.97;;;2.63;;
2502;SDS011;1262;50.918;6.922;2022-07-30T13:10:36;5.90;;;3.10;;
2502;SDS011;1262;50.918;6.922;2022-07-30T13:13:05;5.07;;;2.87;;
2502;SDS011;1262;50.918;6.922;2022-07-30T13:15:32;5.83;;;3.20;;
2502;SDS011;1262;50.918;6.922;2022-07-30T13:17:59;4.80;;;2.17;;
2502;SDS011;1262;50.918;6.922;2022-07-30T13:20:27;3.47;;;2.93;;
2502;SDS011;1262;50.918;6.922;2022-07-30T13:22:54;4.40;;;2.93;;
2502;SDS011;1262;50.918;6.922;2022-07-30T13:25:21;3.20;;;2.63;;
2502;SDS011;1262;50.918;6.922;2022-07-30T13:27:48;4.63;;;3.10;;
2502;SDS011;1262;50.918;6.922;2022-07-30T13:30:17;4.47;;;2.63;;
2502;SDS011;1262;50.918;6.922;2022-07-30T13:32:44;6.97;;;2.73;;
2502;SDS011;1262;50.918;6.922;2022-07-30T13:35:12;3.10;;;2.20;;
2502;SDS011;1262;50.918;6.922;2022-07-30T13:37:39;5.50;;;2.73;;
2502;SDS011;1262;50.918;6.922;2022-07-30T13:40:06;4.07;;;2.60;;
2502;SDS011;1262;50.918;6.922;2022-07-30T13:42:34;4.50;;;2.70;;
2502;SDS011;1262;50.918;6.922;2022-07-30T13:45:01;4.90;;;3.00;;
2502;SDS011;1262;50.918;6.922;2022-07-30T13:47:30;3.23;;;2.87;;
2502;SDS011;1262;50.918;6.922;2022-07-30T13:49:57;2.80;;;2.40;;
2502;SDS011;1262;50.918;6.922;2022-07-30T13:52:24;4.40;;;3.00;;
2502;SDS011;1262;50.918;6.922;2022-07-30T13:54:51;3.37;;;2.43;;
2502;SDS011;1262;50.918;6.922;2022-07-30T13:57:18;4.17;;;2.70;;
2502;SDS011;1262;50.918;6.922;2022-07-30T13:59:46;3.80;;;2.60;;
2502;SDS011;1262;50.918;6.922;2022-07-30T14:02:13;2.90;;;2.30;;
2502;SDS011;1262;50.918;6.922;2022-07-30T14:04:41;4.50;;;2.70;;
2502;SDS011;1262;50.918;6.922;2022-07-30T14:07:08;5.40;;;2.80;;
2502;SDS011;1262;50.918;6.922;2022-07-30T14:09:36;3.90;;;2.60;;
2502;SDS011;1262;50.918;6.922;2022-07-30T14:12:03;4.40;;;2.57;;
2502;SDS011;1262;50.918;6.922;2022-07-30T14:14:35;3.83;;;2.80;;
2502;SDS011;1262;50.918;6.922;2022-07-30T14:17:02;3.20;;;1.90;;
2502;SDS011;1262;50.918;6.922;2022-07-30T14:19:30;3.10;;;2.13;;
2502;SDS011;1262;50.918;6.922;2022-07-30T14:21:58;5.93;;;2.20;;
2502;SDS011;1262;50.918;6.922;2022-07-30T14:24:26;2.43;;;2.13;;
2502;SDS011;1262;50.918;6.922;2022-07-30T14:26:53;4.73;;;2.50;;
2502;SDS011;1262;50.918;6.922;2022-07-30T14:29:20;4.03;;;2.23;;
2502;SDS011;1262;50.918;6.922;2022-07-30T14:31:47;4.43;;;2.77;;
2502;SDS011;1262;50.918;6.922;2022-07-30T14:34:14;3.90;;;2.60;;
2502;SDS011;1262;50.918;6.922;2022-07-30T14:36:43;3.70;;;2.50;;
2502;SDS011;1262;50.918;6.922;2022-07-30T14:39:11;2.80;;;2.23;;
2502;SDS011;1262;50.918;6.922;2022-07-30T14:41:38;3.70;;;2.53;;
2502;SDS011;1262;50.918;6.922;2022-07-30T14:44:07;3.63;;;2.20;;
2502;SDS011;1262;50.918;6.922;2022-07-30T14:46:36;2.70;;;2.20;;
2502;SDS011;1262;50.918;6.922;2022-07-30T14:49:03;3.90;;;2.53;;
2502;SDS011;1262;50.918;6.922;2022-07-30T14:51:33;6.10;;;2.70;;
2502;SDS011;1262;50.918;6.922;2022-07-30T14:54:00;2.97;;;2.57;;
2502;SDS011;1262;50.918;6.922;2022-07-30T14:56:28;3.93;;;2.63;;
2502;SDS011;1262;50.918;6.922;2022-07-30T14:58:56;6.73;;;3.03;;
2502;SDS011;1262;50.918;6.922;2022-07-30T15:01:23;3.50;;;2.30;;
2502;SDS011;1262;50.918;6.922;2022-07-30T15:03:50;4.63;;;2.33;;
2502;SDS011;1262;50.918;6.922;2022-07-30T15:06:17;2.90;;;2.40;;
2502;SDS011;1262;50.918;6.922;2022-07-30T15:08:44;3.47;;;2.30;;
2502;SDS011;1262;50.918;6.922;2022-07-30T15:11:12;1.97;;;1.73;;
2502;SDS011;1262;50.918;6.922;2022-07-30T15:13:41;2.87;;;1.90;;
2502;SDS011;1262;50.918;6.922;2022-07-30T15:16:08;3.63;;;2.40;;
2502;SDS011;1262;50.918;6.922;2022-07-30T15:18:35;3.20;;;2.43;;
2502;SDS011;1262;50.918;6.922;2022-07-30T15:21:02;3.10;;;2.30;;
2502;SDS011;1262;50.918;6.922;2022-07-30T15:23:30;2.90;;;2.40;;
2502;SDS011;1262;50.918;6.922;2022-07-30T15:25:57;3.37;;;2.20;;
2502;SDS011;1262;50.918;6.922;2022-07-30T15:28:24;3.43;;;2.13;;
2502;SDS011;1262;50.918;6.922;2022-07-30T15:30:52;4.57;;;2.20;;
2502;SDS011;1262;50.918;6.922;2022-07-30T15:33:20;2.47;;;2.13;;
2502;SDS011;1262;50.918;6.922;2022-07-30T15:35:47;2.00;;;1.80;;
2502;SDS011;1262;50.918;6.922;2022-07-30T15:38:14;2.30;;;1.70;;